sensor_id;sensor_type;location;lat;lon;timestamp;P1;durP1;ratioP1;P2;durP2;ratioP2
4377;SDS011;2203;53.686;9.994;2023-02-14T00:00:39;50.10;;;23.23;;
4377;SDS011;2203;53.686;9.994;2023-02-14T00:03:05;49.40;;;23.60;;
4377;SDS011;2203;53.686;9.994;2023-02-14T00:05:30;49.93;;;23.13;;
4377;SDS011;2203;53.686;9.994;2023-02-14T00:07:56;51.57;;;25.30;;
4377;SDS011;2203;53.686;9.994;2023-02-14T00:10:21;54.43;;;23.03;;
4377;SDS011;2203;53.686;9.994;2023-02-14T00:12:46;54.83;;;24.70;;
4377;SDS011;2203;53.686;9.994;2023-02-14T00:15:12;47.50;;;23.80;;
4377;SDS011;2203;53.686;9.994;2023-02-14T00:17:47;49.47;;;22.33;;
4377;SDS011;2203;53.686;9.994;2023-02-14T00:20:15;53.97;;;24.33;;
4377;SDS011;2203;53.686;9.994;2023-02-14T00:22:40;48.30;;;22.20;;
4377;SDS011;2203;53.686;9.994;2023-02-14T00:25:06;50.10;;;22.50;;
4377;SDS011;2203;53.686;9.994;2023-02-14T00:27:31;49.93;;;22.73;;
4377;SDS011;2203;53.686;9.994;2023-02-14T00:29:57;46.50;;;22.33;;
4377;SDS011;2203;53.686;9.994;2023-02-14T00:32:26;52.63;;;24.47;;
4377;SDS011;2203;53.686;9.994;2023-02-14T00:34:51;49.20;;;22.40;;
4377;SDS011;2203;53.686;9.994;2023-02-14T00:37:17;53.23;;;25.13;;
4377;SDS011;2203;53.686;9.994;2023-02-14T00:39:42;45.10;;;22.30;;
4377;SDS011;2203;53.686;9.994;2023-02-14T00:42:07;54.40;;;23.77;;
4377;SDS011;2203;53.686;9.994;2023-02-14T00:44:33;56.50;;;23.50;;
4377;SDS011;2203;53.686;9.994;2023-02-14T00:46:58;52.90;;;23.83;;
4377;SDS011;2203;53.686;9.994;2023-02-14T00:49:24;50.37;;;22.07;;
4377;SDS011;2203;53.686;9.994;2023-02-14T00:51:49;52.97;;;23.50;;
4377;SDS011;2203;53.686;9.994;2023-02-14T00:54:14;51.70;;;24.40;;
4377;SDS011;2203;53.686;9.994;2023-02-14T00:56:40;53.00;;;24.87;;
4377;SDS011;2203;53.686;9.994;2023-02-14T00:59:05;49.23;;;20.80;;
4377;SDS011;2203;53.686;9.994;2023-02-14T01:01:31;41.50;;;20.40;;
4377;SDS011;2203;53.686;9.994;2023-02-14T01:03:56;53.03;;;22.47;;
4377;SDS011;2203;53.686;9.994;2023-02-14T01:06:23;50.50;;;23.67;;
4377;SDS011;2203;53.686;9.994;2023-02-14T01:08:48;48.70;;;21.50;;
4377;SDS011;2203;53.686;9.994;2023-02-14T01:11:17;45.27;;;21.17;;
4377;SDS011;2203;53.686;9.994;2023-02-14T01:13:45;51.37;;;23.87;;
4377;SDS011;2203;53.686;9.994;2023-02-14T01:16:12;53.40;;;23.37;;
4377;SDS011;2203;53.686;9.994;2023-02-14T01:18:39;51.03;;;22.63;;
4377;SDS011;2203;53.686;9.994;2023-02-14T01:21:09;48.67;;;22.67;;
4377;SDS011;2203;53.686;9.994;2023-02-14T01:23:39;44.63;;;20.33;;
4377;SDS011;2203;53.686;9.994;2023-02-14T01:26:06;48.60;;;23.03;;
4377;SDS011;2203;53.686;9.994;2023-02-14T01:28:32;48.87;;;23.43;;
4377;SDS011;2203;53.686;9.994;2023-02-14T01:31:04;46.10;;;23.60;;
4377;SDS011;2203;53.686;9.994;2023-02-14T01:33:30;48.57;;;23.00;;
4377;SDS011;2203;53.686;9.994;2023-02-14T01:35:56;50.60;;;22.93;;
4377;SDS011;2203;53.686;9.994;2023-02-14T01:38:22;52.50;;;24.83;;
4377;SDS011;2203;53.686;9.994;2023-02-14T01:40:47;50.93;;;22.80;;
4377;SDS011;2203;53.686;9.994;2023-02-14T01:43:16;48.60;;;23.70;;
4377;SDS011;2203;53.686;9.994;2023-02-14T01:45:41;58.70;;;23.60;;
4377;SDS011;2203;53.686;9.994;2023-02-14T01:48:06;50.03;;;22.40;;
4377;SDS011;2203;53.686;9.994;2023-02-14T01:50:37;50.30;;;23.57;;
4377;SDS011;2203;53.686;9.994;2023-02-14T01:53:07;52.33;;;23.07;;
4377;SDS011;2203;53.686;9.994;2023-02-14T01:55:36;51.37;;;22.60;;
4377;SDS011;2203;53.686;9.994;2023-02-14T01:58:05;50.03;;;22.20;;
4377;SDS011;2203;53.686;9.994;2023-02-14T02:00:34;49.90;;;23.00;;
4377;SDS011;2203;53.686;9.994;2023-02-14T02:03:18;55.83;;;25.00;;
4377;SDS011;2203;53.686;9.994;2023-02-14T02:05:46;50.53;;;21.17;;
4377;SDS011;2203;53.686;9.994;2023-02-14T02:08:12;61.33;;;25.30;;
4377;SDS011;2203;53.686;9.994;2023-02-14T02:10:38;55.43;;;23.93;;
4377;SDS011;2203;53.686;9.994;2023-02-14T02:13:04;49.87;;;23.10;;
4377;SDS011;2203;53.686;9.994;2023-02-14T02:15:33;53.17;;;22.47;;
4377;SDS011;2203;53.686;9.994;2023-02-14T02:18:14;61.23;;;24.90;;
4377;SDS011;2203;53.686;9.994;2023-02-14T02:31:29;56.43;;;25.30;;
4377;SDS011;2203;53.686;9.994;2023-02-14T02:34:17;57.17;;;25.97;;
4377;SDS011;2203;53.686;9.994;2023-02-14T02:48:39;58.97;;;25.40;;
4377;SDS011;2203;53.686;9.994;2023-02-14T02:51:09;58.47;;;26.20;;
4377;SDS011;2203;53.686;9.994;2023-02-14T02:54:01;62.60;;;25.97;;
4377;SDS011;2203;53.686;9.994;2023-02-14T02:56:30;58.83;;;25.70;;
4377;SDS011;2203;53.686;9.994;2023-02-14T02:59:23;58.87;;;23.87;;
4377;SDS011;2203;53.686;9.994;2023-02-14T03:04:34;57.13;;;25.97;;
4377;SDS011;2203;53.686;9.994;2023-02-14T03:07:20;56.17;;;25.70;;
4377;SDS011;2203;53.686;9.994;2023-02-14T03:15:39;60.30;;;25.30;;
4377;SDS011;2203;53.686;9.994;2023-02-14T03:20:54;63.10;;;27.33;;
4377;SDS011;2203;53.686;9.994;2023-02-14T03:23:32;58.50;;;26.37;;
4377;SDS011;2203;53.686;9.994;2023-02-14T03:28:45;60.83;;;26.23;;
4377;SDS011;2203;53.686;9.994;2023-02-14T03:31:31;57.60;;;25.60;;
4377;SDS011;2203;53.686;9.994;2023-02-14T03:36:30;65.97;;;27.30;;
4377;SDS011;2203;53.686;9.994;2023-02-14T03:41:49;58.80;;;24.17;;
4377;SDS011;2203;53.686;9.994;2023-02-14T03:44:28;57.77;;;25.60;;
4377;SDS011;2203;53.686;9.994;2023-02-14T03:46:56;58.23;;;25.67;;
4377;SDS011;2203;53.686;9.994;2023-02-14T03:49:25;58.30;;;25.60;;
4377;SDS011;2203;53.686;9.994;2023-02-14T03:51:54;60.70;;;26.53;;
4377;SDS011;2203;53.686;9.994;2023-02-14T03:54:21;57.00;;;25.10;;
4377;SDS011;2203;53.686;9.994;2023-02-14T03:56:49;60.93;;;24.67;;
4377;SDS011;2203;53.686;9.994;2023-02-14T03:59:20;65.10;;;25.73;;
4377;SDS011;2203;53.686;9.994;2023-02-14T04:01:51;57.23;;;26.20;;
4377;SDS011;2203;53.686;9.994;2023-02-14T04:04:20;59.77;;;25.03;;
4377;SDS011;2203;53.686;9.994;2023-02-14T04:06:48;69.93;;;27.80;;
4377;SDS011;2203;53.686;9.994;2023-02-14T04:09:13;52.97;;;24.10;;
4377;SDS011;2203;53.686;9.994;2023-02-14T04:11:38;61.83;;;27.20;;
4377;SDS011;2203;53.686;9.994;2023-02-14T04:14:04;57.83;;;25.53;;
4377;SDS011;2203;53.686;9.994;2023-02-14T04:16:30;58.33;;;25.60;;
4377;SDS011;2203;53.686;9.994;2023-02-14T04:19:15;57.33;;;25.63;;
4377;SDS011;2203;53.686;9.994;2023-02-14T04:21:46;65.43;;;27.60;;
4377;SDS011;2203;53.686;9.994;2023-02-14T04:24:12;66.83;;;27.87;;
4377;SDS011;2203;53.686;9.994;2023-02-14T04:26:37;60.40;;;26.77;;
4377;SDS011;2203;53.686;9.994;2023-02-14T04:29:02;67.50;;;28.73;;
4377;SDS011;2203;53.686;9.994;2023-02-14T04:31:28;59.33;;;26.63;;
4377;SDS011;2203;53.686;9.994;2023-02-14T04:33:53;62.93;;;28.33;;
4377;SDS011;2203;53.686;9.994;2023-02-14T04:36:19;64.30;;;27.37;;
4377;SDS011;2203;53.686;9.994;2023-02-14T04:38:44;62.70;;;27.27;;
4377;SDS011;2203;53.686;9.994;2023-02-14T04:41:09;65.23;;;28.37;;
4377;SDS011;2203;53.686;9.994;2023-02-14T04:43:35;59.87;;;26.97;;
4377;SDS011;2203;53.686;9.994;2023-02-14T04:46:00;71.13;;;27.57;;
4377;SDS011;2203;53.686;9.994;2023-02-14T04:48:25;61.40;;;26.10;;
4377;SDS011;2203;53.686;9.994;2023-02-14T04:50:54;71.60;;;29.50;;
4377;SDS011;2203;53.686;9.994;2023-02-14T04:53:20;62.80;;;27.37;;
4377;SDS011;2203;53.686;9.994;2023-02-14T04:55:49;60.47;;;26.47;;
4377;SDS011;2203;53.686;9.994;2023-02-14T04:58:14;56.43;;;25.97;;
4377;SDS011;2203;53.686;9.994;2023-02-14T05:00:39;62.00;;;27.57;;
4377;SDS011;2203;53.686;9.994;2023-02-14T05:03:05;56.10;;;24.87;;
4377;SDS011;2203;53.686;9.994;2023-02-14T05:05:30;64.33;;;27.37;;
4377;SDS011;2203;53.686;9.994;2023-02-14T05:07:55;64.40;;;27.93;;
4377;SDS011;2203;53.686;9.994;2023-02-14T05:10:21;59.87;;;25.53;;
4377;SDS011;2203;53.686;9.994;2023-02-14T05:12:46;64.53;;;27.97;;
4377;SDS011;2203;53.686;9.994;2023-02-14T05:15:12;65.20;;;27.80;;
4377;SDS011;2203;53.686;9.994;2023-02-14T05:17:37;66.20;;;27.27;;
4377;SDS011;2203;53.686;9.994;2023-02-14T05:20:03;61.27;;;25.80;;
4377;SDS011;2203;53.686;9.994;2023-02-14T05:22:30;68.63;;;28.93;;
4377;SDS011;2203;53.686;9.994;2023-02-14T05:24:55;66.10;;;28.10;;
4377;SDS011;2203;53.686;9.994;2023-02-14T05:27:20;61.17;;;26.27;;
4377;SDS011;2203;53.686;9.994;2023-02-14T05:29:46;60.53;;;26.60;;
4377;SDS011;2203;53.686;9.994;2023-02-14T05:32:11;65.77;;;26.03;;
4377;SDS011;2203;53.686;9.994;2023-02-14T05:34:36;70.03;;;27.67;;
4377;SDS011;2203;53.686;9.994;2023-02-14T05:37:02;66.23;;;27.33;;
4377;SDS011;2203;53.686;9.994;2023-02-14T05:39:27;65.63;;;27.30;;
4377;SDS011;2203;53.686;9.994;2023-02-14T05:41:53;63.07;;;26.80;;
4377;SDS011;2203;53.686;9.994;2023-02-14T05:44:19;65.20;;;27.40;;
4377;SDS011;2203;53.686;9.994;2023-02-14T05:46:44;63.70;;;27.63;;
4377;SDS011;2203;53.686;9.994;2023-02-14T05:49:09;69.17;;;29.63;;
4377;SDS011;2203;53.686;9.994;2023-02-14T05:51:35;59.67;;;27.23;;
4377;SDS011;2203;53.686;9.994;2023-02-14T05:54:00;68.50;;;29.10;;
4377;SDS011;2203;53.686;9.994;2023-02-14T05:56:26;61.67;;;27.87;;
4377;SDS011;2203;53.686;9.994;2023-02-14T05:58:51;59.70;;;27.67;;
4377;SDS011;2203;53.686;9.994;2023-02-14T06:01:16;63.53;;;28.23;;
4377;SDS011;2203;53.686;9.994;2023-02-14T06:03:42;60.53;;;27.70;;
4377;SDS011;2203;53.686;9.994;2023-02-14T06:06:07;62.37;;;27.57;;
4377;SDS011;2203;53.686;9.994;2023-02-14T06:08:32;67.00;;;28.60;;
4377;SDS011;2203;53.686;9.994;2023-02-14T06:10:58;63.17;;;27.43;;
4377;SDS011;2203;53.686;9.994;2023-02-14T06:13:23;66.37;;;28.47;;
4377;SDS011;2203;53.686;9.994;2023-02-14T06:15:49;68.93;;;29.77;;
4377;SDS011;2203;53.686;9.994;2023-02-14T06:18:14;60.07;;;25.93;;
4377;SDS011;2203;53.686;9.994;2023-02-14T06:20:39;69.70;;;27.37;;
4377;SDS011;2203;53.686;9.994;2023-02-14T06:23:05;63.17;;;27.40;;
4377;SDS011;2203;53.686;9.994;2023-02-14T06:25:30;63.53;;;27.77;;
4377;SDS011;2203;53.686;9.994;2023-02-14T06:27:56;62.93;;;26.83;;
4377;SDS011;2203;53.686;9.994;2023-02-14T06:30:22;62.57;;;27.37;;
4377;SDS011;2203;53.686;9.994;2023-02-14T06:32:48;68.90;;;28.43;;
4377;SDS011;2203;53.686;9.994;2023-02-14T06:35:14;71.53;;;29.80;;
4377;SDS011;2203;53.686;9.994;2023-02-14T06:37:39;66.47;;;27.90;;
4377;SDS011;2203;53.686;9.994;2023-02-14T06:40:06;66.97;;;29.27;;
4377;SDS011;2203;53.686;9.994;2023-02-14T06:42:32;73.17;;;30.43;;
4377;SDS011;2203;53.686;9.994;2023-02-14T06:44:58;70.80;;;26.80;;
4377;SDS011;2203;53.686;9.994;2023-02-14T06:47:23;61.60;;;28.30;;
4377;SDS011;2203;53.686;9.994;2023-02-14T06:49:49;62.70;;;28.97;;
4377;SDS011;2203;53.686;9.994;2023-02-14T06:52:14;65.93;;;27.00;;
4377;SDS011;2203;53.686;9.994;2023-02-14T06:54:39;63.83;;;27.53;;
4377;SDS011;2203;53.686;9.994;2023-02-14T06:57:05;66.53;;;28.33;;
4377;SDS011;2203;53.686;9.994;2023-02-14T06:59:30;64.97;;;25.73;;
4377;SDS011;2203;53.686;9.994;2023-02-14T07:01:55;62.47;;;27.07;;
4377;SDS011;2203;53.686;9.994;2023-02-14T07:04:21;63.07;;;26.60;;
4377;SDS011;2203;53.686;9.994;2023-02-14T07:06:46;62.43;;;27.13;;
4377;SDS011;2203;53.686;9.994;2023-02-14T07:09:12;61.23;;;26.53;;
4377;SDS011;2203;53.686;9.994;2023-02-14T07:11:42;67.00;;;29.47;;
4377;SDS011;2203;53.686;9.994;2023-02-14T07:14:07;70.90;;;29.13;;
4377;SDS011;2203;53.686;9.994;2023-02-14T07:16:33;64.53;;;26.90;;
4377;SDS011;2203;53.686;9.994;2023-02-14T07:18:58;69.17;;;28.13;;
4377;SDS011;2203;53.686;9.994;2023-02-14T07:21:24;71.83;;;29.07;;
4377;SDS011;2203;53.686;9.994;2023-02-14T07:23:49;65.57;;;26.90;;
4377;SDS011;2203;53.686;9.994;2023-02-14T07:26:14;67.93;;;27.30;;
4377;SDS011;2203;53.686;9.994;2023-02-14T07:28:42;67.23;;;28.30;;
4377;SDS011;2203;53.686;9.994;2023-02-14T07:31:09;63.70;;;27.57;;
4377;SDS011;2203;53.686;9.994;2023-02-14T07:33:35;75.17;;;28.10;;
4377;SDS011;2203;53.686;9.994;2023-02-14T07:36:03;63.10;;;27.57;;
4377;SDS011;2203;53.686;9.994;2023-02-14T07:38:29;62.50;;;27.57;;
4377;SDS011;2203;53.686;9.994;2023-02-14T07:40:55;65.57;;;27.07;;
4377;SDS011;2203;53.686;9.994;2023-02-14T07:43:20;69.73;;;27.30;;
4377;SDS011;2203;53.686;9.994;2023-02-14T07:45:45;68.90;;;26.57;;
4377;SDS011;2203;53.686;9.994;2023-02-14T07:48:11;65.83;;;26.93;;
4377;SDS011;2203;53.686;9.994;2023-02-14T07:50:36;65.57;;;27.33;;
4377;SDS011;2203;53.686;9.994;2023-02-14T07:53:01;64.87;;;27.43;;
4377;SDS011;2203;53.686;9.994;2023-02-14T07:55:27;69.90;;;29.27;;
4377;SDS011;2203;53.686;9.994;2023-02-14T07:57:52;63.50;;;27.80;;
4377;SDS011;2203;53.686;9.994;2023-02-14T08:00:18;68.33;;;28.67;;
4377;SDS011;2203;53.686;9.994;2023-02-14T08:02:44;58.40;;;26.27;;
4377;SDS011;2203;53.686;9.994;2023-02-14T08:05:09;65.00;;;27.43;;
4377;SDS011;2203;53.686;9.994;2023-02-14T08:07:35;65.77;;;27.90;;
4377;SDS011;2203;53.686;9.994;2023-02-14T08:10:00;61.37;;;25.83;;
4377;SDS011;2203;53.686;9.994;2023-02-14T08:12:25;69.40;;;27.33;;
4377;SDS011;2203;53.686;9.994;2023-02-14T08:15:09;71.97;;;27.60;;
4377;SDS011;2203;53.686;9.994;2023-02-14T08:17:54;69.47;;;26.13;;
4377;SDS011;2203;53.686;9.994;2023-02-14T08:20:20;56.70;;;24.97;;
4377;SDS011;2203;53.686;9.994;2023-02-14T08:22:46;65.20;;;28.27;;
4377;SDS011;2203;53.686;9.994;2023-02-14T08:25:11;73.37;;;26.93;;
4377;SDS011;2203;53.686;9.994;2023-02-14T08:27:36;60.87;;;26.17;;
4377;SDS011;2203;53.686;9.994;2023-02-14T08:30:02;62.03;;;25.90;;
4377;SDS011;2203;53.686;9.994;2023-02-14T08:32:27;54.50;;;24.03;;
4377;SDS011;2203;53.686;9.994;2023-02-14T08:34:53;60.10;;;24.00;;
4377;SDS011;2203;53.686;9.994;2023-02-14T08:37:18;58.17;;;26.00;;
4377;SDS011;2203;53.686;9.994;2023-02-14T08:39:43;61.23;;;24.47;;
4377;SDS011;2203;53.686;9.994;2023-02-14T08:42:09;51.80;;;23.80;;
4377;SDS011;2203;53.686;9.994;2023-02-14T08:44:34;55.53;;;23.93;;
4377;SDS011;2203;53.686;9.994;2023-02-14T08:46:59;61.87;;;25.47;;
4377;SDS011;2203;53.686;9.994;2023-02-14T08:49:25;55.07;;;25.50;;
4377;SDS011;2203;53.686;9.994;2023-02-14T08:51:50;50.93;;;23.27;;
4377;SDS011;2203;53.686;9.994;2023-02-14T08:54:15;56.87;;;24.80;;
4377;SDS011;2203;53.686;9.994;2023-02-14T08:56:41;52.80;;;22.47;;
4377;SDS011;2203;53.686;9.994;2023-02-14T08:59:06;50.40;;;22.57;;
4377;SDS011;2203;53.686;9.994;2023-02-14T09:01:32;51.03;;;23.93;;
4377;SDS011;2203;53.686;9.994;2023-02-14T09:03:57;49.07;;;21.97;;
4377;SDS011;2203;53.686;9.994;2023-02-14T09:06:23;48.77;;;21.80;;
4377;SDS011;2203;53.686;9.994;2023-02-14T09:08:48;51.23;;;24.40;;
4377;SDS011;2203;53.686;9.994;2023-02-14T09:11:15;46.03;;;21.13;;
4377;SDS011;2203;53.686;9.994;2023-02-14T09:13:43;45.90;;;20.60;;
4377;SDS011;2203;53.686;9.994;2023-02-14T09:16:09;40.20;;;20.10;;
4377;SDS011;2203;53.686;9.994;2023-02-14T09:18:36;44.03;;;19.27;;
4377;SDS011;2203;53.686;9.994;2023-02-14T09:21:05;47.33;;;20.73;;
4377;SDS011;2203;53.686;9.994;2023-02-14T09:23:31;44.80;;;21.17;;
4377;SDS011;2203;53.686;9.994;2023-02-14T09:26:00;45.33;;;20.20;;
4377;SDS011;2203;53.686;9.994;2023-02-14T09:28:26;45.00;;;19.40;;
4377;SDS011;2203;53.686;9.994;2023-02-14T09:30:52;42.00;;;20.27;;
4377;SDS011;2203;53.686;9.994;2023-02-14T09:33:18;47.67;;;20.17;;
4377;SDS011;2203;53.686;9.994;2023-02-14T09:35:43;41.93;;;19.77;;
4377;SDS011;2203;53.686;9.994;2023-02-14T09:38:09;41.37;;;19.67;;
4377;SDS011;2203;53.686;9.994;2023-02-14T09:40:42;41.93;;;20.43;;
4377;SDS011;2203;53.686;9.994;2023-02-14T09:45:52;43.60;;;21.27;;
4377;SDS011;2203;53.686;9.994;2023-02-14T09:48:28;46.10;;;20.50;;
4377;SDS011;2203;53.686;9.994;2023-02-14T09:51:01;39.53;;;19.70;;
4377;SDS011;2203;53.686;9.994;2023-02-14T09:53:32;39.93;;;20.13;;
4377;SDS011;2203;53.686;9.994;2023-02-14T10:11:49;41.23;;;19.80;;
4377;SDS011;2203;53.686;9.994;2023-02-14T10:16:45;37.10;;;18.43;;
4377;SDS011;2203;53.686;9.994;2023-02-14T10:19:42;42.30;;;19.17;;
4377;SDS011;2203;53.686;9.994;2023-02-14T10:22:13;41.27;;;19.70;;
4377;SDS011;2203;53.686;9.994;2023-02-14T10:24:57;38.27;;;19.10;;
4377;SDS011;2203;53.686;9.994;2023-02-14T10:29:54;42.40;;;20.23;;
4377;SDS011;2203;53.686;9.994;2023-02-14T10:32:28;45.90;;;18.90;;
4377;SDS011;2203;53.686;9.994;2023-02-14T10:34:59;46.97;;;21.13;;
4377;SDS011;2203;53.686;9.994;2023-02-14T10:51:15;41.70;;;19.97;;
4377;SDS011;2203;53.686;9.994;2023-02-14T10:59:00;44.73;;;21.93;;
4377;SDS011;2203;53.686;9.994;2023-02-14T11:01:28;39.33;;;18.60;;
4377;SDS011;2203;53.686;9.994;2023-02-14T11:03:55;42.20;;;19.20;;
4377;SDS011;2203;53.686;9.994;2023-02-14T11:06:28;43.50;;;20.03;;
4377;SDS011;2203;53.686;9.994;2023-02-14T11:08:54;39.80;;;20.50;;
4377;SDS011;2203;53.686;9.994;2023-02-14T11:11:27;36.73;;;19.23;;
4377;SDS011;2203;53.686;9.994;2023-02-14T11:13:56;39.37;;;19.80;;
4377;SDS011;2203;53.686;9.994;2023-02-14T11:19:06;40.73;;;19.47;;
4377;SDS011;2203;53.686;9.994;2023-02-14T11:21:39;38.23;;;18.83;;
4377;SDS011;2203;53.686;9.994;2023-02-14T11:26:51;40.23;;;20.70;;
4377;SDS011;2203;53.686;9.994;2023-02-14T11:29:27;38.33;;;20.10;;
4377;SDS011;2203;53.686;9.994;2023-02-14T11:31:54;36.00;;;17.83;;
4377;SDS011;2203;53.686;9.994;2023-02-14T11:34:22;39.63;;;19.77;;
4377;SDS011;2203;53.686;9.994;2023-02-14T11:36:52;59.23;;;19.43;;
4377;SDS011;2203;53.686;9.994;2023-02-14T11:39:24;34.93;;;17.67;;
4377;SDS011;2203;53.686;9.994;2023-02-14T11:41:54;37.77;;;19.77;;
4377;SDS011;2203;53.686;9.994;2023-02-14T11:44:21;39.30;;;20.77;;
4377;SDS011;2203;53.686;9.994;2023-02-14T11:46:49;38.37;;;19.73;;
4377;SDS011;2203;53.686;9.994;2023-02-14T11:49:36;49.80;;;19.63;;
4377;SDS011;2203;53.686;9.994;2023-02-14T11:52:10;37.23;;;18.90;;
4377;SDS011;2203;53.686;9.994;2023-02-14T11:54:40;41.13;;;18.73;;
4377;SDS011;2203;53.686;9.994;2023-02-14T11:59:41;41.50;;;18.97;;
4377;SDS011;2203;53.686;9.994;2023-02-14T12:02:22;36.33;;;19.00;;
4377;SDS011;2203;53.686;9.994;2023-02-14T12:07:44;36.03;;;18.20;;
4377;SDS011;2203;53.686;9.994;2023-02-14T12:12:49;40.90;;;20.00;;
4377;SDS011;2203;53.686;9.994;2023-02-14T12:15:30;46.97;;;18.90;;
4377;SDS011;2203;53.686;9.994;2023-02-14T12:25:55;34.77;;;18.73;;
4377;SDS011;2203;53.686;9.994;2023-02-14T12:28:28;50.83;;;18.03;;
4377;SDS011;2203;53.686;9.994;2023-02-14T12:31:02;32.97;;;17.90;;
4377;SDS011;2203;53.686;9.994;2023-02-14T12:33:32;39.13;;;19.00;;
4377;SDS011;2203;53.686;9.994;2023-02-14T12:39:03;35.20;;;17.80;;
4377;SDS011;2203;53.686;9.994;2023-02-14T12:41:57;35.77;;;18.57;;
4377;SDS011;2203;53.686;9.994;2023-02-14T12:47:59;34.17;;;17.37;;
4377;SDS011;2203;53.686;9.994;2023-02-14T13:26:03;34.73;;;17.40;;
4377;SDS011;2203;53.686;9.994;2023-02-14T13:28:29;33.20;;;16.70;;
4377;SDS011;2203;53.686;9.994;2023-02-14T13:30:56;32.37;;;16.97;;
4377;SDS011;2203;53.686;9.994;2023-02-14T13:33:39;35.33;;;16.40;;
4377;SDS011;2203;53.686;9.994;2023-02-14T13:36:07;39.13;;;18.97;;
4377;SDS011;2203;53.686;9.994;2023-02-14T13:38:37;35.77;;;17.30;;
4377;SDS011;2203;53.686;9.994;2023-02-14T13:41:07;37.53;;;19.07;;
4377;SDS011;2203;53.686;9.994;2023-02-14T13:56:58;33.17;;;17.23;;
4377;SDS011;2203;53.686;9.994;2023-02-14T13:59:32;35.67;;;17.10;;
4377;SDS011;2203;53.686;9.994;2023-02-14T14:02:44;36.73;;;19.30;;
4377;SDS011;2203;53.686;9.994;2023-02-14T14:04:53;34.87;;;19.17;;
4377;SDS011;2203;53.686;9.994;2023-02-14T14:07:23;40.73;;;19.77;;
4377;SDS011;2203;53.686;9.994;2023-02-14T14:09:56;42.90;;;19.23;;
4377;SDS011;2203;53.686;9.994;2023-02-14T14:17:28;31.87;;;18.23;;
4377;SDS011;2203;53.686;9.994;2023-02-14T14:19:54;39.07;;;19.67;;
4377;SDS011;2203;53.686;9.994;2023-02-14T14:22:21;40.63;;;19.90;;
4377;SDS011;2203;53.686;9.994;2023-02-14T14:24:57;40.60;;;20.27;;
4377;SDS011;2203;53.686;9.994;2023-02-14T14:27:26;36.40;;;18.50;;
4377;SDS011;2203;53.686;9.994;2023-02-14T14:29:55;35.00;;;18.00;;
4377;SDS011;2203;53.686;9.994;2023-02-14T14:32:27;38.67;;;19.20;;
4377;SDS011;2203;53.686;9.994;2023-02-14T14:34:55;44.20;;;19.20;;
4377;SDS011;2203;53.686;9.994;2023-02-14T14:37:32;40.57;;;19.23;;
4377;SDS011;2203;53.686;9.994;2023-02-14T14:40:00;34.07;;;17.50;;
4377;SDS011;2203;53.686;9.994;2023-02-14T14:42:28;41.00;;;20.07;;
4377;SDS011;2203;53.686;9.994;2023-02-14T14:44:55;46.67;;;20.63;;
4377;SDS011;2203;53.686;9.994;2023-02-14T14:47:24;37.17;;;19.13;;
4377;SDS011;2203;53.686;9.994;2023-02-14T14:49:52;42.07;;;20.67;;
4377;SDS011;2203;53.686;9.994;2023-02-14T14:52:40;41.90;;;20.37;;
4377;SDS011;2203;53.686;9.994;2023-02-14T14:55:13;42.57;;;18.90;;
4377;SDS011;2203;53.686;9.994;2023-02-14T14:57:47;36.67;;;18.90;;
4377;SDS011;2203;53.686;9.994;2023-02-14T15:02:57;39.00;;;18.70;;
4377;SDS011;2203;53.686;9.994;2023-02-14T15:05:28;35.53;;;18.23;;
4377;SDS011;2203;53.686;9.994;2023-02-14T15:07:56;39.50;;;20.60;;
4377;SDS011;2203;53.686;9.994;2023-02-14T15:10:26;40.90;;;20.27;;
4377;SDS011;2203;53.686;9.994;2023-02-14T15:12:54;38.50;;;18.97;;
4377;SDS011;2203;53.686;9.994;2023-02-14T15:15:40;38.70;;;18.97;;
4377;SDS011;2203;53.686;9.994;2023-02-14T15:18:06;44.00;;;20.93;;
4377;SDS011;2203;53.686;9.994;2023-02-14T15:20:31;34.70;;;18.60;;
4377;SDS011;2203;53.686;9.994;2023-02-14T15:22:57;37.33;;;20.67;;
4377;SDS011;2203;53.686;9.994;2023-02-14T15:25:26;43.10;;;21.10;;
4377;SDS011;2203;53.686;9.994;2023-02-14T15:27:55;36.23;;;19.87;;
4377;SDS011;2203;53.686;9.994;2023-02-14T15:32:53;48.80;;;21.03;;
4377;SDS011;2203;53.686;9.994;2023-02-14T15:35:22;40.70;;;20.07;;
4377;SDS011;2203;53.686;9.994;2023-02-14T15:37:50;39.37;;;19.67;;
4377;SDS011;2203;53.686;9.994;2023-02-14T15:40:16;40.50;;;19.90;;
4377;SDS011;2203;53.686;9.994;2023-02-14T15:42:52;40.13;;;18.33;;
4377;SDS011;2203;53.686;9.994;2023-02-14T15:45:22;39.33;;;20.20;;
4377;SDS011;2203;53.686;9.994;2023-02-14T15:48:04;34.90;;;19.23;;
4377;SDS011;2203;53.686;9.994;2023-02-14T15:50:41;36.77;;;18.40;;
4377;SDS011;2203;53.686;9.994;2023-02-14T15:56:21;44.73;;;19.27;;
4377;SDS011;2203;53.686;9.994;2023-02-14T15:59:13;40.53;;;19.60;;
4377;SDS011;2203;53.686;9.994;2023-02-14T16:01:37;39.90;;;20.87;;
4377;SDS011;2203;53.686;9.994;2023-02-14T16:04:03;38.57;;;19.60;;
4377;SDS011;2203;53.686;9.994;2023-02-14T16:09:04;35.43;;;18.77;;
4377;SDS011;2203;53.686;9.994;2023-02-14T16:11:48;40.80;;;19.70;;
4377;SDS011;2203;53.686;9.994;2023-02-14T16:14:33;38.30;;;19.33;;
4377;SDS011;2203;53.686;9.994;2023-02-14T16:17:04;39.50;;;19.03;;
4377;SDS011;2203;53.686;9.994;2023-02-14T16:19:35;40.77;;;19.60;;
4377;SDS011;2203;53.686;9.994;2023-02-14T16:22:05;37.17;;;18.90;;
4377;SDS011;2203;53.686;9.994;2023-02-14T16:24:31;41.20;;;19.40;;
4377;SDS011;2203;53.686;9.994;2023-02-14T16:26:57;46.00;;;19.60;;
4377;SDS011;2203;53.686;9.994;2023-02-14T16:29:22;38.50;;;19.10;;
4377;SDS011;2203;53.686;9.994;2023-02-14T16:31:52;36.47;;;18.43;;
4377;SDS011;2203;53.686;9.994;2023-02-14T16:34:19;19.47;;;9.93;;
4377;SDS011;2203;53.686;9.994;2023-02-14T16:36:44;37.20;;;18.17;;
4377;SDS011;2203;53.686;9.994;2023-02-14T16:39:12;36.77;;;17.93;;
4377;SDS011;2203;53.686;9.994;2023-02-14T16:41:41;35.50;;;18.40;;
4377;SDS011;2203;53.686;9.994;2023-02-14T16:44:12;40.40;;;20.00;;
4377;SDS011;2203;53.686;9.994;2023-02-14T16:46:41;40.40;;;18.80;;
4377;SDS011;2203;53.686;9.994;2023-02-14T16:49:07;38.90;;;19.27;;
4377;SDS011;2203;53.686;9.994;2023-02-14T16:51:33;39.00;;;18.63;;
4377;SDS011;2203;53.686;9.994;2023-02-14T16:54:00;44.63;;;19.33;;
4377;SDS011;2203;53.686;9.994;2023-02-14T16:59:02;35.63;;;18.40;;
4377;SDS011;2203;53.686;9.994;2023-02-14T17:01:28;39.60;;;19.10;;
4377;SDS011;2203;53.686;9.994;2023-02-14T17:03:54;44.33;;;19.47;;
4377;SDS011;2203;53.686;9.994;2023-02-14T17:06:20;37.30;;;18.27;;
4377;SDS011;2203;53.686;9.994;2023-02-14T17:08:47;53.93;;;19.90;;
4377;SDS011;2203;53.686;9.994;2023-02-14T17:11:12;38.40;;;20.10;;
4377;SDS011;2203;53.686;9.994;2023-02-14T17:13:38;53.27;;;19.87;;
4377;SDS011;2203;53.686;9.994;2023-02-14T17:16:06;38.43;;;18.87;;
4377;SDS011;2203;53.686;9.994;2023-02-14T17:18:32;38.10;;;19.60;;
4377;SDS011;2203;53.686;9.994;2023-02-14T17:21:00;44.33;;;21.00;;
4377;SDS011;2203;53.686;9.994;2023-02-14T17:23:25;38.90;;;19.40;;
4377;SDS011;2203;53.686;9.994;2023-02-14T17:25:51;43.57;;;20.57;;
4377;SDS011;2203;53.686;9.994;2023-02-14T17:28:16;39.40;;;19.67;;
4377;SDS011;2203;53.686;9.994;2023-02-14T17:30:42;41.20;;;19.57;;
4377;SDS011;2203;53.686;9.994;2023-02-14T17:33:07;48.67;;;21.87;;
4377;SDS011;2203;53.686;9.994;2023-02-14T17:35:33;38.80;;;20.00;;
4377;SDS011;2203;53.686;9.994;2023-02-14T17:37:59;41.93;;;20.57;;
4377;SDS011;2203;53.686;9.994;2023-02-14T17:40:26;41.53;;;20.20;;
4377;SDS011;2203;53.686;9.994;2023-02-14T17:42:54;40.60;;;20.63;;
4377;SDS011;2203;53.686;9.994;2023-02-14T17:45:20;46.30;;;22.23;;
4377;SDS011;2203;53.686;9.994;2023-02-14T17:47:46;45.17;;;20.93;;
4377;SDS011;2203;53.686;9.994;2023-02-14T17:50:11;43.90;;;20.50;;
4377;SDS011;2203;53.686;9.994;2023-02-14T17:52:38;41.57;;;18.50;;
4377;SDS011;2203;53.686;9.994;2023-02-14T17:55:04;42.20;;;21.23;;